Time;durP1;ratioP1;P1;durP2;ratioP2;P2;SDS_P1;SDS_P2;PMS_P1;PMS_P2;Temp;Humidity;BMP_temperature;BMP_pressure;BME280_temperature;BME280_humidity;BME280_pressure;Samples;Min_cycle;Max_cycle;Signal;HPM_P1;HPM_P2
2023/06/13 00:00:08;;;;;;;5.40;2.33;;;;;;;17.87;43.89;98998.84;4332061;33;33963;-88
2023/06/13 00:02:40;;;;;;;5.53;2.25;;;;;;;17.63;43.78;99000.16;4345196;33;34212;-88
2023/06/13 00:05:16;;;;;;;5.78;1.92;;;;;;;17.76;44.20;98995.56;4332201;33;34143;-89
2023/06/13 00:07:45;;;;;;;3.92;1.73;;;;;;;17.80;44.12;98997.22;4333644;33;34070;-89
2023/06/13 00:10:14;;;;;;;5.93;1.95;;;;;;;17.28;44.86;98998.16;4344360;33;34679;-89
2023/06/13 00:12:44;;;;;;;5.20;2.00;;;;;;;17.61;44.61;98998.44;4331030;33;34491;-89
2023/06/13 00:15:11;;;;;;;6.10;2.03;;;;;;;17.71;43.99;98995.63;4337766;33;34645;-89
2023/06/13 00:17:39;;;;;;;6.12;2.37;;;;;;;17.58;44.26;98998.50;4345099;33;34657;-89
2023/06/13 00:20:08;;;;;;;6.07;2.20;;;;;;;17.88;44.72;98990.09;4346178;33;33884;-89
2023/06/13 00:22:36;;;;;;;4.18;2.15;;;;;;;17.82;43.76;98992.84;4320615;33;33451;-89
2023/06/13 00:25:04;;;;;;;3.85;1.87;;;;;;;17.92;43.92;98986.53;4345196;33;33459;-89
2023/06/13 00:27:32;;;;;;;4.40;1.98;;;;;;;18.07;43.66;98984.47;4344108;32;33888;-89
2023/06/13 00:30:00;;;;;;;4.65;2.40;;;;;;;18.40;43.40;98978.50;4344588;33;34216;-90
2023/06/13 00:32:30;;;;;;;4.62;2.15;;;;;;;18.20;43.70;98981.56;4342814;33;33341;-88
2023/06/13 00:34:57;;;;;;;5.47;2.12;;;;;;;18.41;43.17;98967.13;4345206;33;33795;-90
2023/06/13 00:37:29;;;;;;;3.83;1.80;;;;;;;18.22;43.88;98977.16;4344986;33;35199;-89
2023/06/13 00:39:57;;;;;;;4.55;2.10;;;;;;;18.42;42.70;98963.59;4345583;33;34848;-89
2023/06/13 00:42:24;;;;;;;6.20;2.25;;;;;;;18.57;43.42;98967.66;4345966;33;33710;-89
2023/06/13 00:44:52;;;;;;;6.43;2.22;;;;;;;18.40;43.48;98970.63;4345674;33;34973;-89
2023/06/13 00:47:19;;;;;;;6.12;2.20;;;;;;;18.39;43.11;98963.66;4344333;33;35036;-88
2023/06/13 00:49:47;;;;;;;4.72;1.83;;;;;;;18.22;43.31;98955.28;4345318;33;33640;-88
2023/06/13 00:52:16;;;;;;;4.03;1.85;;;;;;;18.30;42.06;98958.63;4345617;33;33612;-89
2023/06/13 00:54:43;;;;;;;4.05;1.87;;;;;;;18.46;42.72;98956.53;4345102;33;34851;-88
2023/06/13 00:57:12;;;;;;;6.03;2.17;;;;;;;18.27;42.47;98948.19;4331472;33;34165;-88
2023/06/13 00:59:41;;;;;;;7.65;2.53;;;;;;;18.46;42.61;98943.41;4339965;33;34314;-88
2023/06/13 01:02:09;;;;;;;5.07;2.08;;;;;;;18.51;43.10;98944.16;4342845;33;33523;-87
2023/06/13 01:04:37;;;;;;;4.20;2.10;;;;;;;18.54;42.67;98945.84;4335879;33;34320;-88
2023/06/13 01:07:05;;;;;;;4.20;2.10;;;;;;;18.43;43.57;98940.84;4344386;33;33748;-90
2023/06/13 01:09:33;;;;;;;7.87;2.28;;;;;;;18.34;43.91;98934.03;4343347;33;34056;-89
2023/06/13 01:12:05;;;;;;;5.85;2.33;;;;;;;17.99;44.46;98943.53;4344585;33;33444;-88
2023/06/13 01:14:46;;;;;;;4.53;2.33;;;;;;;18.10;44.36;98942.44;4344669;33;33987;-88
2023/06/13 01:17:25;;;;;;;6.10;2.22;;;;;;;17.84;44.79;98942.97;4344491;33;33994;-89
2023/06/13 01:19:59;;;;;;;5.75;2.10;;;;;;;18.07;44.50;98938.12;4331380;33;34490;-89
2023/06/13 01:22:52;;;;;;;6.30;2.00;;;;;;;17.85;44.62;98940.34;4331407;33;33473;-90
2023/06/13 01:25:39;;;;;;;5.03;1.90;;;;;;;17.70;45.09;98940.59;4331783;33;34010;-89
2023/06/13 01:28:06;;;;;;;3.90;1.80;;;;;;;17.73;45.50;98938.78;4344678;33;33813;-88
2023/06/13 01:30:34;;;;;;;14.13;2.35;;;;;;;17.79;45.33;98939.59;4329958;33;34293;-90
2023/06/13 01:33:03;;;;;;;7.70;2.70;;;;;;;17.98;44.82;98936.53;4330453;33;33671;-89
2023/06/13 01:35:31;;;;;;;4.82;1.85;;;;;;;17.61;45.74;98941.63;4331666;33;34654;-90
2023/06/13 01:37:59;;;;;;;4.55;2.30;;;;;;;17.34;46.21;98932.53;4344973;33;33928;-89
2023/06/13 01:40:26;;;;;;;7.37;1.87;;;;;;;17.30;46.72;98930.88;4344857;33;33850;-88
2023/06/13 01:42:54;;;;;;;3.78;2.00;;;;;;;17.37;46.37;98927.25;4340074;33;34047;-88
2023/06/13 01:45:22;;;;;;;4.65;2.20;;;;;;;17.37;46.25;98919.37;4330802;33;34078;-89
2023/06/13 01:48:22;;;;;;;4.07;1.75;;;;;;;17.10;46.85;98928.59;4343817;33;35206;-90
2023/06/13 01:51:16;;;;;;;6.62;1.75;;;;;;;17.12;46.71;98920.72;4329694;33;33987;-89
2023/06/13 01:53:49;;;;;;;3.95;1.70;;;;;;;17.03;47.19;98924.34;4329470;33;32681;-89
2023/06/13 01:56:22;;;;;;;4.53;2.03;;;;;;;16.76;48.14;98920.44;4331041;33;34766;-89
2023/06/13 01:58:57;;;;;;;5.12;2.35;;;;;;;16.90;46.89;98915.88;4332405;33;33308;-89
2023/06/13 02:01:34;;;;;;;6.10;2.30;;;;;;;16.86;46.98;98918.53;4331914;33;33903;-90
2023/06/13 02:04:03;;;;;;;5.95;1.90;;;;;;;16.80;47.25;98924.75;4331971;33;34463;-90
2023/06/13 02:06:32;;;;;;;5.03;2.08;;;;;;;16.82;47.21;98917.75;4345109;33;34170;-89
2023/06/13 02:09:01;;;;;;;4.35;2.25;;;;;;;16.88;46.93;98916.75;4331223;33;33753;-90
2023/06/13 02:11:29;;;;;;;6.60;2.10;;;;;;;16.86;47.12;98926.37;4344594;32;33689;-89
2023/06/13 02:13:57;;;;;;;3.97;1.77;;;;;;;16.29;48.25;98932.47;4349538;32;33829;-90
2023/06/13 02:16:29;;;;;;;7.18;2.40;;;;;;;16.40;47.95;98925.34;4344703;33;34039;-89
2023/06/13 02:18:59;;;;;;;4.68;2.62;;;;;;;16.58;48.09;98928.56;4345243;33;35055;-89
2023/06/13 02:21:30;;;;;;;4.95;1.92;;;;;;;16.35;48.97;98926.28;4331316;33;34176;-90
2023/06/13 02:23:58;;;;;;;4.65;2.10;;;;;;;16.44;48.75;98927.03;4329703;33;33638;-89
2023/06/13 02:26:28;;;;;;;4.80;2.00;;;;;;;16.26;49.56;98927.28;4344857;33;34150;-89
2023/06/13 02:29:00;;;;;;;6.78;2.22;;;;;;;16.59;49.15;98925.03;4344886;33;35004;-91
2023/06/13 02:31:28;;;;;;;3.30;1.85;;;;;;;16.63;48.71;98921.47;4344481;33;34022;-90
2023/06/13 02:33:56;;;;;;;4.07;1.83;;;;;;;16.45;48.89;98926.13;4344259;33;34207;-88
2023/06/13 02:36:23;;;;;;;5.40;1.87;;;;;;;16.56;48.47;98925.13;4331091;33;34046;-90
2023/06/13 02:38:51;;;;;;;5.87;2.37;;;;;;;16.40;48.76;98925.34;4344608;33;33911;-90
2023/06/13 02:41:18;;;;;;;6.40;1.98;;;;;;;16.50;48.22;98912.97;4343724;33;33916;-90
2023/06/13 02:43:46;;;;;;;5.70;1.87;;;;;;;16.42;48.52;98909.63;4330447;33;34236;-89
2023/06/13 02:46:15;;;;;;;5.05;2.20;;;;;;;16.60;48.04;98906.72;4344874;33;33770;-89
2023/06/13 02:48:43;;;;;;;6.82;2.25;;;;;;;16.46;48.53;98908.69;4332442;33;34318;-89
2023/06/13 02:51:11;;;;;;;4.12;2.03;;;;;;;16.48;48.64;98907.78;4342828;32;33803;-90
2023/06/13 02:53:39;;;;;;;4.75;1.98;;;;;;;16.38;48.74;98911.41;4343549;33;33360;-90
2023/06/13 02:56:06;;;;;;;4.28;1.92;;;;;;;16.32;48.85;98919.34;4343450;33;33639;-90
2023/06/13 02:58:34;;;;;;;5.03;2.10;;;;;;;16.37;48.83;98919.28;4344274;33;34134;-89
2023/06/13 03:01:02;;;;;;;4.80;2.20;;;;;;;16.19;49.34;98920.41;4344013;33;33885;-90
2023/06/13 03:03:29;;;;;;;4.82;2.12;;;;;;;16.21;49.41;98927.34;4344699;33;33453;-90
2023/06/13 03:05:59;;;;;;;4.47;1.85;;;;;;;16.27;49.04;98916.78;4343596;33;34807;-90
2023/06/13 03:08:27;;;;;;;3.95;1.77;;;;;;;16.48;48.78;98920.00;4330585;33;35239;-89
2023/06/13 03:10:55;;;;;;;4.57;2.22;;;;;;;16.46;48.62;98919.16;4339056;33;34868;-89
2023/06/13 03:13:23;;;;;;;5.18;2.20;;;;;;;16.36;49.14;98917.53;4343831;33;34145;-88
2023/06/13 03:15:51;;;;;;;5.25;2.22;;;;;;;16.29;49.08;98919.41;4342048;33;33541;-90
2023/06/13 03:18:20;;;;;;;7.68;2.47;;;;;;;16.14;49.67;98906.50;4343901;33;34229;-89
2023/06/13 03:20:48;;;;;;;5.57;2.22;;;;;;;16.15;50.11;98913.50;4346117;33;34202;-88
2023/06/13 03:23:16;;;;;;;8.55;2.12;;;;;;;16.14;49.85;98911.75;4346715;33;34286;-89
2023/06/13 03:25:44;;;;;;;5.05;2.37;;;;;;;16.23;49.52;98909.88;4346130;33;34130;-89
2023/06/13 03:28:12;;;;;;;6.95;2.50;;;;;;;16.23;49.79;98906.41;4345822;33;34260;-89
2023/06/13 03:30:40;;;;;;;5.12;2.42;;;;;;;16.27;50.27;98913.31;4332895;33;33227;-90
2023/06/13 03:33:09;;;;;;;5.65;2.37;;;;;;;16.17;50.34;98914.31;4345688;32;33167;-89
2023/06/13 03:35:38;;;;;;;6.00;2.10;;;;;;;16.32;50.37;98916.72;4338676;33;34770;-89
2023/06/13 03:38:06;;;;;;;6.62;2.25;;;;;;;16.28;50.27;98917.66;4320311;33;33954;-89
2023/06/13 03:40:33;;;;;;;5.62;2.65;;;;;;;16.35;50.32;98919.28;4345271;33;34910;-89
2023/06/13 03:43:01;;;;;;;4.60;2.15;;;;;;;16.19;50.60;98917.78;4330089;33;33089;-89
2023/06/13 03:45:29;;;;;;;4.25;2.20;;;;;;;16.40;50.47;98912.25;4332873;33;34016;-88
2023/06/13 03:47:56;;;;;;;5.00;2.28;;;;;;;16.28;51.00;98921.13;4346005;33;34155;-89
2023/06/13 03:50:23;;;;;;;5.80;2.00;;;;;;;16.21;51.62;98919.50;4345313;33;34484;-89
2023/06/13 03:52:51;;;;;;;8.73;2.45;;;;;;;16.12;51.70;98918.75;4345631;33;34289;-89
2023/06/13 03:55:19;;;;;;;5.75;2.20;;;;;;;15.95;51.79;98922.47;4332193;33;33807;-89
2023/06/13 03:57:46;;;;;;;6.22;2.42;;;;;;;16.17;51.85;98923.03;4345712;33;34179;-90
2023/06/13 04:00:15;;;;;;;6.30;2.62;;;;;;;16.28;51.60;98921.13;4346248;33;34223;-89
2023/06/13 04:02:44;;;;;;;5.95;2.58;;;;;;;16.33;51.67;98923.69;4331974;33;33804;-89
2023/06/13 04:05:13;;;;;;;3.90;2.05;;;;;;;16.20;50.73;98915.16;4345021;33;33788;-90
2023/06/13 04:07:42;;;;;;;5.68;2.22;;;;;;;16.66;51.45;98910.97;4345203;32;34931;-89
2023/06/13 04:10:10;;;;;;;4.07;2.05;;;;;;;16.58;50.93;98920.69;4334618;33;33546;-88
2023/06/13 04:12:38;;;;;;;6.65;2.35;;;;;;;16.64;50.25;98918.87;4345313;33;32803;-89
2023/06/13 04:15:06;;;;;;;4.95;2.15;;;;;;;16.95;48.63;98924.50;4345855;33;34534;-89
2023/06/13 04:17:36;;;;;;;7.00;2.20;;;;;;;17.33;50.32;98932.56;4345032;33;33753;-90
2023/06/13 04:20:09;;;;;;;7.40;2.15;;;;;;;17.66;47.88;98928.47;4344805;33;33715;-89
2023/06/13 04:22:36;;;;;;;4.53;1.95;;;;;;;17.97;46.13;98919.09;4346072;32;33924;-90
2023/06/13 04:25:04;;;;;;;4.68;2.00;;;;;;;18.65;45.51;98912.31;4346050;33;33452;-89
2023/06/13 04:27:34;;;;;;;7.25;2.60;;;;;;;18.89;42.76;98911.75;4345834;33;35132;-89
2023/06/13 04:30:02;;;;;;;4.75;2.10;;;;;;;18.96;42.27;98917.72;4344946;32;33822;-89
2023/06/13 04:32:33;;;;;;;5.20;1.87;;;;;;;19.29;42.74;98916.00;4345364;32;33266;-89
2023/06/13 04:35:01;;;;;;;4.20;1.60;;;;;;;19.59;44.64;98923.94;4342772;33;33489;-89
2023/06/13 04:37:30;;;;;;;5.62;1.80;;;;;;;20.03;41.33;98913.94;4343757;33;34180;-90
2023/06/13 04:39:58;;;;;;;4.55;1.80;;;;;;;20.05;41.17;98915.62;4344151;33;34873;-90
2023/06/13 04:42:29;;;;;;;5.62;1.87;;;;;;;19.64;41.08;98916.81;4343939;32;33179;-90
2023/06/13 04:44:59;;;;;;;4.78;2.15;;;;;;;20.15;40.66;98924.09;4343255;32;33200;-89
2023/06/13 04:47:32;;;;;;;4.68;2.03;;;;;;;19.72;39.69;98927.13;4345368;33;35074;-88
2023/06/13 04:50:21;;;;;;;3.40;1.60;;;;;;;20.53;39.36;98920.34;4335905;32;33611;-88
2023/06/13 04:52:50;;;;;;;4.18;1.70;;;;;;;19.71;38.90;98921.00;4347748;32;33682;-89
2023/06/13 04:55:18;;;;;;;7.40;1.80;;;;;;;20.71;37.69;98918.00;4342401;33;32772;-91
2023/06/13 04:57:45;;;;;;;3.70;1.70;;;;;;;20.33;37.90;98915.66;4346214;33;34028;-91
2023/06/13 05:00:15;;;;;;;5.55;1.70;;;;;;;20.62;37.04;98913.91;4332186;33;33741;-90
2023/06/13 05:02:43;;;;;;;5.03;1.87;;;;;;;20.60;36.67;98913.94;4345374;33;34719;-91
2023/06/13 05:05:10;;;;;;;5.28;1.92;;;;;;;20.28;37.82;98914.94;4345439;33;34918;-91
2023/06/13 05:07:39;;;;;;;4.95;1.65;;;;;;;20.47;37.97;98924.91;4346170;33;33866;-91
2023/06/13 05:10:08;;;;;;;4.53;1.90;;;;;;;20.79;36.23;98922.12;4320303;33;33550;-91
2023/06/13 05:12:38;;;;;;;4.25;1.70;;;;;;;20.94;35.61;98927.81;4331920;33;33674;-91
2023/06/13 05:15:06;;;;;;;5.80;2.53;;;;;;;20.17;37.62;98928.41;4331144;33;33552;-90
2023/06/13 05:17:34;;;;;;;6.57;2.20;;;;;;;20.54;36.47;98915.94;4330966;33;35055;-89
2023/06/13 05:20:02;;;;;;;3.92;1.60;;;;;;;20.46;35.83;98925.81;4331165;33;34613;-90
2023/06/13 05:22:29;;;;;;;3.67;1.70;;;;;;;20.20;36.47;98913.44;4344018;33;33570;-91
2023/06/13 05:24:59;;;;;;;5.78;1.85;;;;;;;20.29;36.82;98918.44;4332297;33;33609;-90
2023/06/13 05:27:29;;;;;;;7.43;2.00;;;;;;;20.86;37.98;98922.78;4332839;33;34261;-89
2023/06/13 05:29:56;;;;;;;5.05;1.92;;;;;;;21.10;37.33;98915.81;4345565;33;34021;-90
2023/06/13 05:32:24;;;;;;;5.60;1.85;;;;;;;21.49;35.96;98925.97;4345784;32;33394;-91
2023/06/13 05:34:51;;;;;;;5.62;1.75;;;;;;;20.93;36.23;98918.19;4346763;32;34713;-87
2023/06/13 05:37:19;;;;;;;3.78;1.42;;;;;;;20.49;35.87;98923.06;4344195;33;34152;-89
2023/06/13 05:39:46;;;;;;;6.12;1.67;;;;;;;20.16;36.61;98923.22;4345388;33;35090;-90
2023/06/13 05:42:14;;;;;;;8.27;2.20;;;;;;;20.15;35.10;98924.09;4345492;33;33392;-89
2023/06/13 05:44:41;;;;;;;5.45;2.10;;;;;;;20.77;36.11;98918.69;4345267;33;34927;-89
2023/06/13 05:47:09;;;;;;;5.07;1.92;;;;;;;20.17;37.13;98927.56;4345161;33;33980;-89
2023/06/13 05:49:37;;;;;;;7.57;1.87;;;;;;;20.68;35.68;98924.22;4345629;33;33163;-89
2023/06/13 05:52:05;;;;;;;5.20;1.90;;;;;;;20.57;36.33;98918.44;4345578;33;34779;-88
2023/06/13 05:54:32;;;;;;;5.93;2.25;;;;;;;20.27;36.59;98930.78;4345726;33;34852;-88
2023/06/13 05:57:01;;;;;;;3.67;1.73;;;;;;;20.76;34.73;98926.63;4345421;33;34175;-89
2023/06/13 05:59:29;;;;;;;5.00;1.77;;;;;;;20.97;34.83;98928.56;4345234;33;34775;-89
2023/06/13 06:01:56;;;;;;;5.45;1.58;;;;;;;21.26;33.63;98927.59;4345188;33;33881;-89
2023/06/13 06:04:25;;;;;;;3.85;1.73;;;;;;;20.81;35.28;98925.56;4344464;33;34015;-89
2023/06/13 06:06:53;;;;;;;5.82;1.67;;;;;;;21.09;34.31;98924.66;4344661;33;35062;-89
2023/06/13 06:09:21;;;;;;;5.97;2.00;;;;;;;21.27;34.05;98928.44;4332122;33;33912;-89
2023/06/13 06:11:52;;;;;;;3.83;1.60;;;;;;;20.72;34.05;98925.87;4332576;33;33480;-90
2023/06/13 06:14:20;;;;;;;6.72;1.98;;;;;;;20.60;34.91;98931.53;4344573;33;34070;-87
2023/06/13 06:16:47;;;;;;;5.95;1.80;;;;;;;20.42;35.09;98927.69;4331594;33;33921;-89
2023/06/13 06:19:15;;;;;;;5.95;2.00;;;;;;;20.47;35.36;98927.53;4342682;33;84344;-89
2023/06/13 06:21:43;;;;;;;5.43;1.95;;;;;;;20.41;35.88;98932.06;4345009;33;33426;-87
2023/06/13 06:24:10;;;;;;;5.37;1.90;;;;;;;21.00;35.04;98935.50;4345224;33;34345;-90
2023/06/13 06:26:38;;;;;;;5.78;2.00;;;;;;;20.25;36.38;98935.22;4344721;33;33942;-89
2023/06/13 06:29:06;;;;;;;4.15;1.70;;;;;;;20.46;35.01;98912.66;4344885;33;34340;-89
2023/06/13 06:31:33;;;;;;;4.00;1.87;;;;;;;21.21;35.55;98926.00;4345040;33;33580;-89
2023/06/13 06:34:01;;;;;;;5.93;1.77;;;;;;;20.82;32.39;98918.53;4344892;33;33886;-89
2023/06/13 06:36:28;;;;;;;4.57;2.05;;;;;;;21.24;33.41;98912.72;4344799;33;34900;-89
2023/06/13 06:38:56;;;;;;;4.47;1.50;;;;;;;21.24;34.35;98910.94;4344148;33;34621;-89
2023/06/13 06:41:23;;;;;;;5.18;1.90;;;;;;;21.60;34.06;98900.91;4344649;33;33596;-88
2023/06/13 06:43:51;;;;;;;7.72;2.47;;;;;;;22.36;33.60;98906.03;4343532;33;33971;-89
2023/06/13 06:46:23;;;;;;;7.70;3.25;;;;;;;21.92;31.99;98895.34;4342860;33;34891;-88
2023/06/13 06:48:51;;;;;;;12.35;5.12;;;;;;;22.66;31.87;98891.59;4344549;33;34038;-90
2023/06/13 06:51:18;;;;;;;5.12;1.83;;;;;;;23.01;31.04;98902.50;4345195;33;33621;-89
2023/06/13 06:53:46;;;;;;;4.32;1.75;;;;;;;22.73;31.30;98905.38;4345865;33;34722;-89
2023/06/13 06:56:13;;;;;;;5.70;1.50;;;;;;;22.56;31.41;98901.66;4346520;33;33648;-90
2023/06/13 06:58:41;;;;;;;4.03;1.87;;;;;;;22.07;31.30;98905.34;4346171;33;33424;-89
2023/06/13 07:01:08;;;;;;;4.65;1.60;;;;;;;22.32;30.16;98902.66;4346280;33;34330;-89
2023/06/13 07:03:37;;;;;;;3.15;1.42;;;;;;;22.38;32.04;98905.03;4333043;33;33887;-89
2023/06/13 07:06:06;;;;;;;5.68;2.12;;;;;;;23.00;30.41;98898.16;4346301;33;34185;-88
2023/06/13 07:08:34;;;;;;;4.37;1.65;;;;;;;22.66;32.00;98902.16;4346030;33;34642;-89
2023/06/13 07:11:02;;;;;;;4.45;1.75;;;;;;;23.25;30.45;98898.81;4346296;33;33608;-88
2023/06/13 07:13:30;;;;;;;6.60;2.35;;;;;;;22.87;30.01;98905.69;4345993;33;33678;-88
2023/06/13 07:15:57;;;;;;;5.18;1.77;;;;;;;22.20;31.43;98897.81;4346974;33;34160;-90
2023/06/13 07:18:25;;;;;;;3.50;1.48;;;;;;;21.90;32.60;98895.44;4345524;33;34523;-90
2023/06/13 07:20:53;;;;;;;4.15;1.77;;;;;;;21.82;32.11;98898.34;4332906;33;33452;-90
2023/06/13 07:23:20;;;;;;;3.70;1.60;;;;;;;21.20;32.46;98903.19;4346124;33;34056;-89
2023/06/13 07:25:48;;;;;;;4.62;1.42;;;;;;;21.56;30.99;98903.72;4346150;33;34723;-88
2023/06/13 07:28:15;;;;;;;4.43;2.15;;;;;;;20.71;33.75;98902.22;4345862;33;34731;-88
2023/06/13 07:30:43;;;;;;;4.95;1.77;;;;;;;21.43;32.48;98905.06;4332738;33;32499;-89
2023/06/13 07:33:12;;;;;;;5.35;1.60;;;;;;;21.27;33.26;98902.94;4346097;32;33904;-91
2023/06/13 07:35:41;;;;;;;5.78;1.73;;;;;;;21.50;32.29;98898.66;4346540;33;35654;-90
2023/06/13 07:38:09;;;;;;;6.47;2.12;;;;;;;21.51;32.57;98900.38;4346197;33;34756;-90
2023/06/13 07:40:37;;;;;;;7.90;2.30;;;;;;;21.59;32.51;98893.03;4345953;33;33307;-92
2023/06/13 07:43:04;;;;;;;6.78;1.35;;;;;;;21.69;32.04;98899.72;4345781;33;33902;-90
2023/06/13 07:45:32;;;;;;;5.18;1.80;;;;;;;21.63;33.49;98894.69;4346035;33;34120;-90
2023/06/13 07:47:59;;;;;;;5.53;2.50;;;;;;;21.68;33.59;98903.28;4346008;33;33870;-89
2023/06/13 07:50:28;;;;;;;4.45;1.77;;;;;;;22.07;32.47;98894.78;4332907;33;32567;-90
2023/06/13 07:52:55;;;;;;;5.72;1.87;;;;;;;21.57;33.59;98897.53;4346127;33;34934;-90
2023/06/13 07:55:23;;;;;;;5.43;1.60;;;;;;;21.73;33.36;98898.69;4346073;33;34194;-91
2023/06/13 07:57:50;;;;;;;4.62;1.60;;;;;;;21.67;33.35;98893.66;4346458;33;34080;-91
2023/06/13 08:00:26;;;;;;;6.95;2.03;;;;;;;22.00;32.31;98880.94;4346362;33;33946;-90
2023/06/13 08:02:55;;;;;;;7.37;2.17;;;;;;;21.95;33.40;98874.13;4345862;33;34727;-91
2023/06/13 08:05:23;;;;;;;3.92;1.85;;;;;;;21.84;33.81;98872.75;4332993;33;34962;-91
2023/06/13 08:07:50;;;;;;;5.78;2.22;;;;;;;21.71;33.29;98875.94;4332664;33;33952;-91
2023/06/13 08:10:18;;;;;;;6.40;1.83;;;;;;;21.83;34.64;98871.03;4346353;33;34591;-91
2023/06/13 08:12:46;;;;;;;4.97;1.95;;;;;;;22.14;34.14;98876.94;4346032;33;35289;-91
2023/06/13 08:15:14;;;;;;;5.35;2.05;;;;;;;22.26;34.25;98873.81;4346438;33;34537;-90
2023/06/13 08:17:42;;;;;;;5.37;1.90;;;;;;;21.52;35.15;98887.16;4332977;33;33641;-90
2023/06/13 08:20:10;;;;;;;4.72;1.85;;;;;;;22.01;34.03;98881.78;4345931;33;33418;-90
2023/06/13 08:22:39;;;;;;;6.95;1.92;;;;;;;22.20;35.24;98877.59;4332543;33;33960;-90
2023/06/13 08:25:10;;;;;;;6.25;1.83;;;;;;;22.35;34.96;98884.03;4320787;33;34690;-89
2023/06/13 08:27:39;;;;;;;5.25;2.47;;;;;;;22.73;35.19;98876.31;4344399;33;34049;-89
2023/06/13 08:30:07;;;;;;;5.57;1.70;;;;;;;23.36;32.51;98877.19;4345990;33;33477;-93
2023/06/13 08:32:36;;;;;;;4.12;1.67;;;;;;;22.99;34.86;98875.25;4332952;33;33822;-91
2023/06/13 08:35:04;;;;;;;6.00;1.98;;;;;;;22.70;33.95;98882.59;4333148;33;35067;-90
2023/06/13 08:37:33;;;;;;;4.45;1.70;;;;;;;22.67;33.30;98881.88;4346270;33;34385;-91
2023/06/13 08:40:00;;;;;;;3.97;1.48;;;;;;;22.99;32.42;98865.53;4346180;33;34415;-89
2023/06/13 08:42:28;;;;;;;5.62;1.80;;;;;;;23.20;34.10;98871.72;4332584;33;34887;-91
2023/06/13 08:44:56;;;;;;;3.92;1.70;;;;;;;23.55;31.17;98874.59;4346084;33;34022;-90
2023/06/13 08:47:23;;;;;;;6.93;2.15;;;;;;;23.11;33.95;98874.75;4332690;33;33655;-92
2023/06/13 08:50:04;;;;;;;5.10;1.80;;;;;;;22.83;33.84;98867.09;4321384;33;33457;-91
2023/06/13 08:52:41;;;;;;;5.40;1.73;;;;;;;23.00;33.93;98861.12;4332619;33;33909;-90
2023/06/13 08:55:17;;;;;;;4.97;1.92;;;;;;;23.13;35.74;98870.25;4345732;33;34615;-91
2023/06/13 08:57:55;;;;;;;3.97;1.70;;;;;;;23.13;34.72;98872.91;4332474;33;34190;-92
2023/06/13 09:00:23;;;;;;;4.75;1.80;;;;;;;23.30;34.08;98875.69;4333095;33;32924;-90
2023/06/13 09:02:52;;;;;;;5.82;1.73;;;;;;;23.36;34.06;98873.69;4333074;33;34090;-89
2023/06/13 09:05:20;;;;;;;5.45;2.20;;;;;;;22.82;34.50;98871.53;4345965;33;34211;-91
2023/06/13 09:07:49;;;;;;;3.92;1.50;;;;;;;23.01;33.66;98870.78;4332392;33;34683;-89
2023/06/13 09:10:17;;;;;;;4.28;1.70;;;;;;;23.39;34.25;98878.84;4332430;33;33212;-91
2023/06/13 09:12:46;;;;;;;5.12;1.80;;;;;;;23.69;33.88;98877.50;4332360;33;33475;-91
2023/06/13 09:15:14;;;;;;;5.62;1.92;;;;;;;23.85;32.37;98876.81;4331772;33;35044;-90
2023/06/13 09:17:42;;;;;;;5.53;1.98;;;;;;;23.14;32.81;98874.59;4345883;33;34984;-89
2023/06/13 09:20:10;;;;;;;5.43;1.67;;;;;;;23.19;33.33;98872.66;4345987;33;33934;-91
2023/06/13 09:22:38;;;;;;;4.15;1.90;;;;;;;23.09;32.83;98866.03;4345459;33;33913;-90
2023/06/13 09:25:08;;;;;;;5.05;1.70;;;;;;;23.57;33.45;98862.16;4332489;33;35163;-88
2023/06/13 09:27:36;;;;;;;5.22;1.77;;;;;;;23.90;33.85;98867.69;4345892;33;34745;-89
2023/06/13 09:30:04;;;;;;;4.30;1.52;;;;;;;23.63;31.23;98861.00;4332352;33;33467;-89
2023/06/13 09:32:32;;;;;;;3.83;1.60;;;;;;;23.09;32.17;98865.16;4345728;33;34019;-91
2023/06/13 09:35:02;;;;;;;4.97;1.52;;;;;;;23.05;32.21;98870.56;4332492;33;35105;-89
2023/06/13 09:37:30;;;;;;;5.05;1.80;;;;;;;23.75;31.45;98853.41;4345629;33;33981;-89
2023/06/13 09:40:01;;;;;;;5.50;2.12;;;;;;;24.15;29.96;98848.03;4332401;33;32986;-89
2023/06/13 09:42:43;;;;;;;6.18;1.58;;;;;;;23.62;32.53;98857.50;4333640;33;34074;-92
2023/06/13 09:45:30;;;;;;;4.78;1.70;;;;;;;23.25;32.94;98853.84;4345682;33;34223;-89
2023/06/13 09:47:58;;;;;;;4.03;1.60;;;;;;;23.51;33.53;98857.13;4345526;33;34866;-91
2023/06/13 09:50:29;;;;;;;5.00;1.70;;;;;;;23.61;32.26;98853.16;4345771;33;34727;-92
2023/06/13 09:52:58;;;;;;;4.70;2.08;;;;;;;23.45;33.08;98860.91;4345183;33;33742;-89
2023/06/13 09:55:26;;;;;;;4.78;1.55;;;;;;;24.34;31.74;98861.25;4345397;33;34913;-89
2023/06/13 09:57:53;;;;;;;6.97;2.10;;;;;;;23.77;31.09;98859.47;4345469;33;34764;-89
2023/06/13 10:00:41;;;;;;;6.60;1.80;;;;;;;23.25;30.71;98866.22;4332016;33;32265;-89
2023/06/13 10:03:09;;;;;;;3.70;1.67;;;;;;;23.40;32.56;98869.97;4345452;33;33967;-88
2023/06/13 10:05:47;;;;;;;4.03;1.67;;;;;;;23.75;28.94;98866.66;4345369;33;33844;-89
2023/06/13 10:08:15;;;;;;;4.68;2.00;;;;;;;23.60;32.04;98856.72;4345484;33;34427;-90
2023/06/13 10:10:43;;;;;;;4.37;1.55;;;;;;;23.48;31.57;98858.13;4332250;33;33020;-91
2023/06/13 10:13:13;;;;;;;4.45;1.70;;;;;;;22.94;32.12;98862.25;4345671;33;33890;-89
2023/06/13 10:15:52;;;;;;;6.35;1.65;;;;;;;23.55;31.83;98864.00;4345821;33;34222;-89
2023/06/13 10:18:21;;;;;;;5.10;2.05;;;;;;;23.73;31.24;98857.91;4331868;33;33752;-88
2023/06/13 10:20:49;;;;;;;4.18;1.85;;;;;;;24.03;30.86;98844.19;4332182;33;33517;-90
2023/06/13 10:23:20;;;;;;;4.85;1.60;;;;;;;23.81;31.49;98838.16;4332014;33;33445;-91
2023/06/13 10:25:52;;;;;;;3.70;1.50;;;;;;;23.88;30.71;98829.00;4332040;33;33713;-89
2023/06/13 10:28:27;;;;;;;3.70;1.50;;;;;;;23.99;29.70;98837.31;4332053;33;33990;-89
2023/06/13 10:31:19;;;;;;;7.05;1.75;;;;;;;24.31;29.76;98837.56;4344968;33;34515;-88
2023/06/13 10:33:55;;;;;;;3.40;1.45;;;;;;;24.06;31.55;98836.09;4345076;33;34104;-92
2023/06/13 10:36:43;;;;;;;3.60;1.75;;;;;;;24.22;30.58;98839.72;4344780;33;35021;-89
2023/06/13 10:39:29;;;;;;;6.87;1.85;;;;;;;23.88;30.91;98837.81;4345057;33;34156;-89
2023/06/13 10:42:24;;;;;;;5.72;1.73;;;;;;;23.90;30.24;98840.38;4345002;33;33523;-89
2023/06/13 10:44:58;;;;;;;3.70;1.70;;;;;;;23.76;29.93;98836.59;4322168;33;34715;-89
2023/06/13 10:47:28;;;;;;;3.42;1.50;;;;;;;23.77;29.80;98827.72;4344976;33;33637;-92
2023/06/13 10:49:57;;;;;;;4.28;1.50;;;;;;;23.60;29.62;98835.56;4331576;33;34078;-90
2023/06/13 10:52:24;;;;;;;6.45;1.70;;;;;;;23.94;30.72;98839.28;4319596;33;33598;-90
2023/06/13 10:54:53;;;;;;;2.92;1.33;;;;;;;23.75;29.53;98826.94;4344958;33;34681;-90
2023/06/13 10:57:21;;;;;;;5.53;1.85;;;;;;;24.38;26.96;98823.06;4344832;33;33804;-91
2023/06/13 10:59:49;;;;;;;5.45;1.60;;;;;;;23.86;29.54;98821.13;4331913;33;34496;-91
2023/06/13 11:02:18;;;;;;;5.68;1.65;;;;;;;24.03;29.41;98823.00;4344830;33;34317;-89
2023/06/13 11:04:50;;;;;;;4.95;1.77;;;;;;;23.85;31.58;98826.50;4344516;33;34082;-89
2023/06/13 11:07:21;;;;;;;4.60;1.90;;;;;;;24.30;30.40;98825.25;4331429;33;35081;-89
2023/06/13 11:10:22;;;;;;;5.03;1.70;;;;;;;24.45;29.57;98829.81;4344696;33;33526;-92
2023/06/13 11:12:53;;;;;;;6.65;1.95;;;;;;;23.90;29.87;98827.13;4307578;33;32800;-89
2023/06/13 11:15:27;;;;;;;4.25;1.87;;;;;;;23.00;30.35;98822.34;4331272;33;34626;-89
2023/06/13 11:18:21;;;;;;;4.03;1.80;;;;;;;23.17;33.47;98826.87;4331196;33;33044;-91
2023/06/13 11:20:51;;;;;;;5.10;1.92;;;;;;;23.39;31.96;98825.94;4342571;33;33940;-91
2023/06/13 11:23:38;;;;;;;3.97;1.50;;;;;;;23.06;30.32;98814.13;4343297;33;34014;-90
2023/06/13 11:26:06;;;;;;;5.62;1.73;;;;;;;24.16;29.68;98808.22;4329908;33;33458;-89
2023/06/13 11:28:34;;;;;;;5.35;1.73;;;;;;;23.63;29.08;98808.94;4330330;33;34284;-91
2023/06/13 11:31:04;;;;;;;8.00;1.90;;;;;;;23.68;31.16;98809.63;4343700;33;35001;-88
2023/06/13 11:33:36;;;;;;;5.10;1.67;;;;;;;24.13;30.74;98808.38;4330117;33;33643;-90
2023/06/13 11:36:04;;;;;;;5.10;1.80;;;;;;;23.90;29.54;98800.66;4344309;33;34513;-89
2023/06/13 11:38:40;;;;;;;3.92;1.80;;;;;;;24.11;29.25;98804.94;4331720;33;33948;-90
2023/06/13 11:41:08;;;;;;;3.75;1.60;;;;;;;23.90;29.40;98795.38;4346560;33;33598;-92
2023/06/13 11:43:36;;;;;;;4.95;1.80;;;;;;;23.74;27.69;98796.09;4332780;33;33338;-92
2023/06/13 11:46:05;;;;;;;5.82;1.70;;;;;;;24.40;27.69;98800.91;4333233;33;34628;-90